sensor_id;sensor_type;location;lat;lon;timestamp;P1;durP1;ratioP1;P2;durP2;ratioP2
13611;SDS011;6877;51.436;6.774;2023-07-02T00:02:19;10.32;;;4.40;;
13611;SDS011;6877;51.436;6.774;2023-07-02T00:04:50;8.98;;;4.10;;
13611;SDS011;6877;51.436;6.774;2023-07-02T00:07:22;6.05;;;4.07;;
13611;SDS011;6877;51.436;6.774;2023-07-02T00:09:54;12.32;;;4.18;;
13611;SDS011;6877;51.436;6.774;2023-07-02T00:12:20;8.25;;;4.00;;
13611;SDS011;6877;51.436;6.774;2023-07-02T00:14:47;10.98;;;4.68;;
13611;SDS011;6877;51.436;6.774;2023-07-02T00:17:13;8.43;;;3.80;;
13611;SDS011;6877;51.436;6.774;2023-07-02T00:19:45;10.05;;;4.38;;
13611;SDS011;6877;51.436;6.774;2023-07-02T00:22:12;11.45;;;5.10;;
13611;SDS011;6877;51.436;6.774;2023-07-02T00:24:38;9.45;;;4.18;;
13611;SDS011;6877;51.436;6.774;2023-07-02T00:27:10;9.25;;;5.30;;
13611;SDS011;6877;51.436;6.774;2023-07-02T00:29:41;7.30;;;4.40;;
13611;SDS011;6877;51.436;6.774;2023-07-02T00:32:08;11.68;;;4.07;;
13611;SDS011;6877;51.436;6.774;2023-07-02T00:34:39;10.30;;;4.32;;
13611;SDS011;6877;51.436;6.774;2023-07-02T00:37:05;13.43;;;5.30;;
13611;SDS011;6877;51.436;6.774;2023-07-02T00:39:32;10.00;;;4.25;;
13611;SDS011;6877;51.436;6.774;2023-07-02T00:42:03;10.45;;;4.43;;
13611;SDS011;6877;51.436;6.774;2023-07-02T00:44:35;13.05;;;4.88;;
13611;SDS011;6877;51.436;6.774;2023-07-02T00:47:07;8.18;;;4.97;;
13611;SDS011;6877;51.436;6.774;2023-07-02T00:49:34;6.25;;;4.07;;
13611;SDS011;6877;51.436;6.774;2023-07-02T00:52:00;7.35;;;4.25;;
13611;SDS011;6877;51.436;6.774;2023-07-02T00:54:27;10.30;;;4.20;;
13611;SDS011;6877;51.436;6.774;2023-07-02T00:56:54;7.60;;;5.10;;
13611;SDS011;6877;51.436;6.774;2023-07-02T00:59:21;11.13;;;5.53;;
13611;SDS011;6877;51.436;6.774;2023-07-02T01:01:48;14.75;;;5.38;;
13611;SDS011;6877;51.436;6.774;2023-07-02T01:04:18;9.80;;;5.35;;
13611;SDS011;6877;51.436;6.774;2023-07-02T01:06:45;12.30;;;5.10;;
13611;SDS011;6877;51.436;6.774;2023-07-02T01:09:11;10.73;;;4.38;;
13611;SDS011;6877;51.436;6.774;2023-07-02T01:11:43;11.60;;;4.72;;
13611;SDS011;6877;51.436;6.774;2023-07-02T01:14:28;7.65;;;4.55;;
13611;SDS011;6877;51.436;6.774;2023-07-02T01:17:04;9.55;;;4.50;;
13611;SDS011;6877;51.436;6.774;2023-07-02T01:19:38;13.77;;;5.30;;
13611;SDS011;6877;51.436;6.774;2023-07-02T01:22:09;9.93;;;5.85;;
13611;SDS011;6877;51.436;6.774;2023-07-02T01:24:42;15.02;;;5.18;;
13611;SDS011;6877;51.436;6.774;2023-07-02T01:27:09;7.13;;;4.45;;
13611;SDS011;6877;51.436;6.774;2023-07-02T01:29:41;10.27;;;5.43;;
13611;SDS011;6877;51.436;6.774;2023-07-02T01:32:10;13.70;;;5.82;;
13611;SDS011;6877;51.436;6.774;2023-07-02T01:34:37;13.85;;;6.15;;
13611;SDS011;6877;51.436;6.774;2023-07-02T01:37:08;16.05;;;5.25;;
13611;SDS011;6877;51.436;6.774;2023-07-02T01:39:40;13.82;;;6.35;;
13611;SDS011;6877;51.436;6.774;2023-07-02T01:42:07;7.82;;;4.40;;
13611;SDS011;6877;51.436;6.774;2023-07-02T01:44:38;22.60;;;6.35;;
13611;SDS011;6877;51.436;6.774;2023-07-02T01:47:05;11.88;;;5.75;;
13611;SDS011;6877;51.436;6.774;2023-07-02T01:49:36;12.80;;;6.60;;
13611;SDS011;6877;51.436;6.774;2023-07-02T01:52:04;11.52;;;5.45;;
13611;SDS011;6877;51.436;6.774;2023-07-02T01:54:31;11.23;;;6.13;;
13611;SDS011;6877;51.436;6.774;2023-07-02T01:56:59;13.35;;;7.15;;
13611;SDS011;6877;51.436;6.774;2023-07-02T01:59:25;15.70;;;6.32;;
13611;SDS011;6877;51.436;6.774;2023-07-02T02:01:57;17.67;;;5.80;;
13611;SDS011;6877;51.436;6.774;2023-07-02T02:04:23;10.25;;;5.63;;
13611;SDS011;6877;51.436;6.774;2023-07-02T02:06:50;13.13;;;7.07;;
13611;SDS011;6877;51.436;6.774;2023-07-02T02:09:23;11.73;;;6.57;;
13611;SDS011;6877;51.436;6.774;2023-07-02T02:11:54;14.68;;;6.68;;
13611;SDS011;6877;51.436;6.774;2023-07-02T02:14:20;18.48;;;6.82;;
13611;SDS011;6877;51.436;6.774;2023-07-02T02:16:48;14.35;;;6.85;;
13611;SDS011;6877;51.436;6.774;2023-07-02T02:19:14;17.75;;;7.90;;
13611;SDS011;6877;51.436;6.774;2023-07-02T02:21:41;12.85;;;7.05;;
13611;SDS011;6877;51.436;6.774;2023-07-02T02:24:08;25.35;;;7.47;;
13611;SDS011;6877;51.436;6.774;2023-07-02T02:26:34;13.88;;;6.22;;
13611;SDS011;6877;51.436;6.774;2023-07-02T02:29:01;17.75;;;7.30;;
13611;SDS011;6877;51.436;6.774;2023-07-02T02:31:28;16.02;;;7.63;;
13611;SDS011;6877;51.436;6.774;2023-07-02T02:33:54;13.45;;;6.78;;
13611;SDS011;6877;51.436;6.774;2023-07-02T02:36:21;13.57;;;6.78;;
13611;SDS011;6877;51.436;6.774;2023-07-02T02:38:52;20.85;;;9.35;;
13611;SDS011;6877;51.436;6.774;2023-07-02T02:41:23;12.98;;;6.90;;
13611;SDS011;6877;51.436;6.774;2023-07-02T02:43:55;15.07;;;6.55;;
13611;SDS011;6877;51.436;6.774;2023-07-02T02:46:26;14.43;;;6.97;;
13611;SDS011;6877;51.436;6.774;2023-07-02T02:48:58;16.15;;;6.70;;
13611;SDS011;6877;51.436;6.774;2023-07-02T02:51:24;21.15;;;8.55;;
13611;SDS011;6877;51.436;6.774;2023-07-02T02:53:51;24.67;;;9.00;;
13611;SDS011;6877;51.436;6.774;2023-07-02T02:56:22;15.77;;;7.55;;
13611;SDS011;6877;51.436;6.774;2023-07-02T02:58:48;18.38;;;9.43;;
13611;SDS011;6877;51.436;6.774;2023-07-02T03:01:15;21.15;;;8.73;;
13611;SDS011;6877;51.436;6.774;2023-07-02T03:03:41;17.40;;;8.98;;
13611;SDS011;6877;51.436;6.774;2023-07-02T03:06:16;21.08;;;8.98;;
13611;SDS011;6877;51.436;6.774;2023-07-02T03:08:42;25.45;;;8.93;;
13611;SDS011;6877;51.436;6.774;2023-07-02T03:11:09;17.63;;;9.13;;
13611;SDS011;6877;51.436;6.774;2023-07-02T03:13:40;20.33;;;9.35;;
13611;SDS011;6877;51.436;6.774;2023-07-02T03:16:07;20.17;;;9.00;;
13611;SDS011;6877;51.436;6.774;2023-07-02T03:18:33;19.98;;;9.85;;
13611;SDS011;6877;51.436;6.774;2023-07-02T03:21:00;22.27;;;9.43;;
13611;SDS011;6877;51.436;6.774;2023-07-02T03:23:27;23.20;;;10.20;;
13611;SDS011;6877;51.436;6.774;2023-07-02T03:25:58;20.27;;;9.48;;
13611;SDS011;6877;51.436;6.774;2023-07-02T03:28:25;23.52;;;9.63;;
13611;SDS011;6877;51.436;6.774;2023-07-02T03:30:51;17.73;;;9.38;;
13611;SDS011;6877;51.436;6.774;2023-07-02T03:33:17;22.52;;;10.30;;
13611;SDS011;6877;51.436;6.774;2023-07-02T03:35:44;28.00;;;9.98;;
13611;SDS011;6877;51.436;6.774;2023-07-02T03:38:10;19.38;;;9.80;;
13611;SDS011;6877;51.436;6.774;2023-07-02T03:40:37;20.42;;;9.82;;
13611;SDS011;6877;51.436;6.774;2023-07-02T03:43:08;19.88;;;9.13;;
13611;SDS011;6877;51.436;6.774;2023-07-02T03:45:34;24.30;;;10.95;;
13611;SDS011;6877;51.436;6.774;2023-07-02T03:48:01;22.85;;;10.82;;
13611;SDS011;6877;51.436;6.774;2023-07-02T03:50:32;26.33;;;10.63;;
13611;SDS011;6877;51.436;6.774;2023-07-02T03:52:59;25.92;;;11.43;;
13611;SDS011;6877;51.436;6.774;2023-07-02T03:55:25;23.80;;;11.70;;
13611;SDS011;6877;51.436;6.774;2023-07-02T03:57:51;22.92;;;10.40;;
13611;SDS011;6877;51.436;6.774;2023-07-02T04:00:23;21.27;;;10.93;;
13611;SDS011;6877;51.436;6.774;2023-07-02T04:02:49;25.50;;;12.85;;
13611;SDS011;6877;51.436;6.774;2023-07-02T04:05:20;24.15;;;12.05;;
13611;SDS011;6877;51.436;6.774;2023-07-02T04:07:52;22.15;;;11.50;;
13611;SDS011;6877;51.436;6.774;2023-07-02T04:10:18;21.95;;;11.57;;
13611;SDS011;6877;51.436;6.774;2023-07-02T04:12:45;24.02;;;11.52;;
13611;SDS011;6877;51.436;6.774;2023-07-02T04:15:11;20.77;;;11.65;;
13611;SDS011;6877;51.436;6.774;2023-07-02T04:17:42;26.30;;;12.02;;
13611;SDS011;6877;51.436;6.774;2023-07-02T04:20:09;25.98;;;11.80;;
13611;SDS011;6877;51.436;6.774;2023-07-02T04:22:41;24.38;;;13.70;;
13611;SDS011;6877;51.436;6.774;2023-07-02T04:25:07;24.08;;;12.73;;
13611;SDS011;6877;51.436;6.774;2023-07-02T04:27:34;24.48;;;12.18;;
13611;SDS011;6877;51.436;6.774;2023-07-02T04:30:05;30.90;;;12.75;;
13611;SDS011;6877;51.436;6.774;2023-07-02T04:32:34;25.00;;;13.18;;
13611;SDS011;6877;51.436;6.774;2023-07-02T04:35:04;25.35;;;12.27;;
13611;SDS011;6877;51.436;6.774;2023-07-02T04:37:36;25.27;;;12.15;;
13611;SDS011;6877;51.436;6.774;2023-07-02T04:40:08;26.67;;;13.00;;
13611;SDS011;6877;51.436;6.774;2023-07-02T04:42:38;23.58;;;12.23;;
13611;SDS011;6877;51.436;6.774;2023-07-02T04:45:06;24.90;;;12.98;;
13611;SDS011;6877;51.436;6.774;2023-07-02T04:47:39;30.00;;;13.43;;
13611;SDS011;6877;51.436;6.774;2023-07-02T04:50:05;32.53;;;12.98;;
13611;SDS011;6877;51.436;6.774;2023-07-02T04:52:32;29.05;;;13.80;;
13611;SDS011;6877;51.436;6.774;2023-07-02T04:54:58;27.73;;;12.88;;
13611;SDS011;6877;51.436;6.774;2023-07-02T04:57:25;30.45;;;14.15;;
13611;SDS011;6877;51.436;6.774;2023-07-02T04:59:51;27.60;;;13.02;;
13611;SDS011;6877;51.436;6.774;2023-07-02T05:02:23;26.67;;;12.73;;
13611;SDS011;6877;51.436;6.774;2023-07-02T05:04:49;26.27;;;13.15;;
13611;SDS011;6877;51.436;6.774;2023-07-02T05:07:16;26.48;;;12.98;;
13611;SDS011;6877;51.436;6.774;2023-07-02T05:09:42;26.52;;;13.02;;
13611;SDS011;6877;51.436;6.774;2023-07-02T05:12:09;28.42;;;13.27;;
13611;SDS011;6877;51.436;6.774;2023-07-02T05:14:35;28.63;;;13.77;;
13611;SDS011;6877;51.436;6.774;2023-07-02T05:17:02;25.95;;;13.07;;
13611;SDS011;6877;51.436;6.774;2023-07-02T05:19:29;31.60;;;15.10;;
13611;SDS011;6877;51.436;6.774;2023-07-02T05:21:55;28.60;;;13.65;;
13611;SDS011;6877;51.436;6.774;2023-07-02T05:24:22;31.17;;;16.10;;
13611;SDS011;6877;51.436;6.774;2023-07-02T05:26:48;30.15;;;14.93;;
13611;SDS011;6877;51.436;6.774;2023-07-02T05:29:21;34.83;;;15.88;;
13611;SDS011;6877;51.436;6.774;2023-07-02T05:31:48;35.53;;;13.45;;
13611;SDS011;6877;51.436;6.774;2023-07-02T05:34:14;33.15;;;15.02;;
13611;SDS011;6877;51.436;6.774;2023-07-02T05:36:40;31.45;;;15.55;;
13611;SDS011;6877;51.436;6.774;2023-07-02T05:39:12;28.70;;;12.63;;
13611;SDS011;6877;51.436;6.774;2023-07-02T05:41:38;30.27;;;14.75;;
13611;SDS011;6877;51.436;6.774;2023-07-02T05:44:05;36.30;;;14.02;;
13611;SDS011;6877;51.436;6.774;2023-07-02T05:46:36;29.27;;;14.55;;
13611;SDS011;6877;51.436;6.774;2023-07-02T05:49:03;29.98;;;13.65;;
13611;SDS011;6877;51.436;6.774;2023-07-02T05:51:37;28.90;;;13.73;;
13611;SDS011;6877;51.436;6.774;2023-07-02T05:54:03;31.73;;;13.35;;
13611;SDS011;6877;51.436;6.774;2023-07-02T05:56:30;42.97;;;15.98;;
13611;SDS011;6877;51.436;6.774;2023-07-02T05:58:56;31.58;;;14.75;;
13611;SDS011;6877;51.436;6.774;2023-07-02T06:01:22;27.25;;;14.07;;
13611;SDS011;6877;51.436;6.774;2023-07-02T06:03:49;27.48;;;13.70;;
13611;SDS011;6877;51.436;6.774;2023-07-02T06:06:16;35.63;;;16.23;;
13611;SDS011;6877;51.436;6.774;2023-07-02T06:08:43;35.88;;;14.30;;
13611;SDS011;6877;51.436;6.774;2023-07-02T06:11:10;25.55;;;12.77;;
13611;SDS011;6877;51.436;6.774;2023-07-02T06:13:36;28.50;;;13.52;;
13611;SDS011;6877;51.436;6.774;2023-07-02T06:16:03;26.67;;;12.77;;
13611;SDS011;6877;51.436;6.774;2023-07-02T06:18:29;30.00;;;13.00;;
13611;SDS011;6877;51.436;6.774;2023-07-02T06:21:01;35.70;;;14.23;;
13611;SDS011;6877;51.436;6.774;2023-07-02T06:23:29;25.58;;;12.52;;
13611;SDS011;6877;51.436;6.774;2023-07-02T06:25:56;25.02;;;12.30;;
13611;SDS011;6877;51.436;6.774;2023-07-02T06:28:25;24.65;;;12.68;;
13611;SDS011;6877;51.436;6.774;2023-07-02T06:30:52;31.98;;;13.25;;
13611;SDS011;6877;51.436;6.774;2023-07-02T06:33:19;30.15;;;13.18;;
13611;SDS011;6877;51.436;6.774;2023-07-02T06:35:50;26.02;;;12.15;;
13611;SDS011;6877;51.436;6.774;2023-07-02T06:38:22;31.88;;;12.63;;
13611;SDS011;6877;51.436;6.774;2023-07-02T06:40:48;33.92;;;13.30;;
13611;SDS011;6877;51.436;6.774;2023-07-02T06:43:15;34.38;;;13.13;;
13611;SDS011;6877;51.436;6.774;2023-07-02T06:45:41;23.83;;;11.63;;
13611;SDS011;6877;51.436;6.774;2023-07-02T06:48:07;28.63;;;12.75;;
13611;SDS011;6877;51.436;6.774;2023-07-02T06:50:42;27.05;;;13.10;;
13611;SDS011;6877;51.436;6.774;2023-07-02T06:53:09;26.35;;;11.85;;
13611;SDS011;6877;51.436;6.774;2023-07-02T06:55:36;25.42;;;12.27;;
13611;SDS011;6877;51.436;6.774;2023-07-02T06:58:02;25.55;;;11.93;;
13611;SDS011;6877;51.436;6.774;2023-07-02T07:00:35;34.20;;;12.60;;
13611;SDS011;6877;51.436;6.774;2023-07-02T07:03:03;30.88;;;12.80;;
13611;SDS011;6877;51.436;6.774;2023-07-02T07:05:32;29.45;;;12.88;;
13611;SDS011;6877;51.436;6.774;2023-07-02T07:08:02;26.10;;;12.55;;
13611;SDS011;6877;51.436;6.774;2023-07-02T07:10:29;25.90;;;12.60;;
13611;SDS011;6877;51.436;6.774;2023-07-02T07:13:03;28.08;;;11.63;;
13611;SDS011;6877;51.436;6.774;2023-07-02T07:15:32;29.30;;;12.98;;
13611;SDS011;6877;51.436;6.774;2023-07-02T07:18:02;31.20;;;13.35;;
13611;SDS011;6877;51.436;6.774;2023-07-02T07:20:29;28.67;;;11.35;;
13611;SDS011;6877;51.436;6.774;2023-07-02T07:22:56;28.48;;;11.60;;
13611;SDS011;6877;51.436;6.774;2023-07-02T07:25:23;30.55;;;11.13;;
13611;SDS011;6877;51.436;6.774;2023-07-02T07:27:51;24.65;;;11.65;;
13611;SDS011;6877;51.436;6.774;2023-07-02T07:30:18;19.20;;;9.82;;
13611;SDS011;6877;51.436;6.774;2023-07-02T07:32:49;22.73;;;9.65;;
13611;SDS011;6877;51.436;6.774;2023-07-02T07:35:17;22.23;;;10.25;;
13611;SDS011;6877;51.436;6.774;2023-07-02T07:37:44;19.75;;;9.18;;
13611;SDS011;6877;51.436;6.774;2023-07-02T07:40:11;22.17;;;9.63;;
13611;SDS011;6877;51.436;6.774;2023-07-02T07:42:43;18.98;;;8.93;;
13611;SDS011;6877;51.436;6.774;2023-07-02T07:45:10;21.58;;;10.23;;
13611;SDS011;6877;51.436;6.774;2023-07-02T07:47:38;17.58;;;8.73;;
13611;SDS011;6877;51.436;6.774;2023-07-02T07:50:05;18.80;;;9.60;;
13611;SDS011;6877;51.436;6.774;2023-07-02T07:52:40;21.92;;;9.57;;
13611;SDS011;6877;51.436;6.774;2023-07-02T07:55:06;24.70;;;10.73;;
13611;SDS011;6877;51.436;6.774;2023-07-02T07:57:34;24.50;;;10.35;;
13611;SDS011;6877;51.436;6.774;2023-07-02T08:00:07;17.58;;;8.55;;
13611;SDS011;6877;51.436;6.774;2023-07-02T08:02:35;19.95;;;9.02;;
13611;SDS011;6877;51.436;6.774;2023-07-02T08:05:02;18.33;;;8.90;;
13611;SDS011;6877;51.436;6.774;2023-07-02T08:07:32;16.50;;;8.52;;
13611;SDS011;6877;51.436;6.774;2023-07-02T08:09:59;17.60;;;8.50;;
13611;SDS011;6877;51.436;6.774;2023-07-02T08:12:26;14.30;;;7.45;;
13611;SDS011;6877;51.436;6.774;2023-07-02T08:14:55;13.60;;;7.50;;
13611;SDS011;6877;51.436;6.774;2023-07-02T08:17:21;15.25;;;7.78;;
13611;SDS011;6877;51.436;6.774;2023-07-02T08:19:48;16.92;;;7.53;;
13611;SDS011;6877;51.436;6.774;2023-07-02T08:22:19;12.95;;;6.47;;
13611;SDS011;6877;51.436;6.774;2023-07-02T08:24:46;12.85;;;7.15;;
13611;SDS011;6877;51.436;6.774;2023-07-02T08:27:20;17.13;;;7.20;;
13611;SDS011;6877;51.436;6.774;2023-07-02T08:29:47;16.90;;;6.75;;
13611;SDS011;6877;51.436;6.774;2023-07-02T08:32:13;15.20;;;6.85;;
13611;SDS011;6877;51.436;6.774;2023-07-02T08:34:41;14.10;;;7.13;;
13611;SDS011;6877;51.436;6.774;2023-07-02T08:37:07;16.05;;;6.65;;
13611;SDS011;6877;51.436;6.774;2023-07-02T08:39:33;13.98;;;5.90;;
13611;SDS011;6877;51.436;6.774;2023-07-02T08:42:02;12.20;;;6.80;;
13611;SDS011;6877;51.436;6.774;2023-07-02T08:44:28;14.10;;;7.18;;
13611;SDS011;6877;51.436;6.774;2023-07-02T08:47:00;17.13;;;7.25;;
13611;SDS011;6877;51.436;6.774;2023-07-02T08:49:27;14.75;;;5.95;;
13611;SDS011;6877;51.436;6.774;2023-07-02T08:51:54;16.30;;;6.97;;
13611;SDS011;6877;51.436;6.774;2023-07-02T08:54:20;14.27;;;6.25;;
13611;SDS011;6877;51.436;6.774;2023-07-02T08:56:47;16.05;;;6.88;;
13611;SDS011;6877;51.436;6.774;2023-07-02T08:59:18;15.48;;;6.97;;
13611;SDS011;6877;51.436;6.774;2023-07-02T09:01:51;12.88;;;6.55;;
13611;SDS011;6877;51.436;6.774;2023-07-02T09:04:19;11.85;;;6.50;;
13611;SDS011;6877;51.436;6.774;2023-07-02T09:06:47;14.88;;;7.40;;
13611;SDS011;6877;51.436;6.774;2023-07-02T09:09:15;14.75;;;6.60;;
13611;SDS011;6877;51.436;6.774;2023-07-02T09:11:51;8.80;;;5.65;;
13611;SDS011;6877;51.436;6.774;2023-07-02T09:14:26;13.02;;;6.10;;
13611;SDS011;6877;51.436;6.774;2023-07-02T09:17:07;13.65;;;6.22;;
13611;SDS011;6877;51.436;6.774;2023-07-02T09:19:35;12.80;;;6.35;;
13611;SDS011;6877;51.436;6.774;2023-07-02T09:22:02;16.92;;;7.35;;
13611;SDS011;6877;51.436;6.774;2023-07-02T09:24:30;13.23;;;6.80;;
13611;SDS011;6877;51.436;6.774;2023-07-02T09:27:03;12.35;;;7.05;;
13611;SDS011;6877;51.436;6.774;2023-07-02T09:29:30;17.90;;;6.78;;
13611;SDS011;6877;51.436;6.774;2023-07-02T09:32:04;12.52;;;6.40;;
13611;SDS011;6877;51.436;6.774;2023-07-02T09:34:35;14.45;;;7.53;;
13611;SDS011;6877;51.436;6.774;2023-07-02T09:37:07;12.90;;;7.22;;
13611;SDS011;6877;51.436;6.774;2023-07-02T09:39:38;15.13;;;8.18;;
13611;SDS011;6877;51.436;6.774;2023-07-02T09:42:10;16.35;;;7.00;;
13611;SDS011;6877;51.436;6.774;2023-07-02T09:44:37;17.08;;;8.00;;
13611;SDS011;6877;51.436;6.774;2023-07-02T09:49:33;16.90;;;8.10;;
13611;SDS011;6877;51.436;6.774;2023-07-02T09:52:05;13.93;;;7.30;;
13611;SDS011;6877;51.436;6.774;2023-07-02T09:54:33;13.00;;;6.65;;
13611;SDS011;6877;51.436;6.774;2023-07-02T09:57:00;17.35;;;7.15;;
13611;SDS011;6877;51.436;6.774;2023-07-02T09:59:27;16.02;;;7.05;;
13611;SDS011;6877;51.436;6.774;2023-07-02T10:01:55;11.93;;;6.32;;
13611;SDS011;6877;51.436;6.774;2023-07-02T10:04:22;17.00;;;6.55;;
13611;SDS011;6877;51.436;6.774;2023-07-02T10:06:56;13.23;;;6.72;;
13611;SDS011;6877;51.436;6.774;2023-07-02T10:10:01;12.13;;;6.35;;
13611;SDS011;6877;51.436;6.774;2023-07-02T10:12:26;12.85;;;5.60;;
13611;SDS011;6877;51.436;6.774;2023-07-02T10:14:55;12.18;;;6.57;;
13611;SDS011;6877;51.436;6.774;2023-07-02T10:17:33;15.90;;;6.40;;
13611;SDS011;6877;51.436;6.774;2023-07-02T10:20:02;11.13;;;5.97;;
13611;SDS011;6877;51.436;6.774;2023-07-02T10:22:49;13.88;;;7.15;;
13611;SDS011;6877;51.436;6.774;2023-07-02T10:25:26;13.18;;;6.13;;
13611;SDS011;6877;51.436;6.774;2023-07-02T10:27:53;10.55;;;5.97;;
13611;SDS011;6877;51.436;6.774;2023-07-02T10:35:42;15.20;;;6.50;;
13611;SDS011;6877;51.436;6.774;2023-07-02T10:38:18;16.45;;;5.90;;
13611;SDS011;6877;51.436;6.774;2023-07-02T10:40:46;17.10;;;6.68;;
13611;SDS011;6877;51.436;6.774;2023-07-02T10:43:13;12.57;;;6.40;;
13611;SDS011;6877;51.436;6.774;2023-07-02T10:45:40;14.27;;;6.35;;
13611;SDS011;6877;51.436;6.774;2023-07-02T10:48:09;14.50;;;6.60;;
13611;SDS011;6877;51.436;6.774;2023-07-02T10:50:36;14.48;;;6.25;;
13611;SDS011;6877;51.436;6.774;2023-07-02T10:53:03;14.80;;;6.70;;
13611;SDS011;6877;51.436;6.774;2023-07-02T10:55:34;12.43;;;5.78;;
13611;SDS011;6877;51.436;6.774;2023-07-02T10:58:08;13.65;;;6.18;;
13611;SDS011;6877;51.436;6.774;2023-07-02T11:00:45;12.73;;;6.13;;
13611;SDS011;6877;51.436;6.774;2023-07-02T11:03:19;16.85;;;6.78;;
13611;SDS011;6877;51.436;6.774;2023-07-02T11:05:49;13.55;;;6.43;;
13611;SDS011;6877;51.436;6.774;2023-07-02T11:08:16;11.93;;;5.65;;
13611;SDS011;6877;51.436;6.774;2023-07-02T11:10:43;13.73;;;5.97;;
13611;SDS011;6877;51.436;6.774;2023-07-02T11:13:17;12.95;;;5.70;;
13611;SDS011;6877;51.436;6.774;2023-07-02T11:15:45;13.63;;;6.45;;
13611;SDS011;6877;51.436;6.774;2023-07-02T11:18:12;10.07;;;5.53;;
13611;SDS011;6877;51.436;6.774;2023-07-02T11:20:41;14.50;;;6.05;;
13611;SDS011;6877;51.436;6.774;2023-07-02T11:26:08;54.35;;;8.02;;
13611;SDS011;6877;51.436;6.774;2023-07-02T11:28:35;13.93;;;6.53;;
13611;SDS011;6877;51.436;6.774;2023-07-02T11:31:02;12.30;;;5.20;;
13611;SDS011;6877;51.436;6.774;2023-07-02T11:36:00;12.82;;;6.20;;
13611;SDS011;6877;51.436;6.774;2023-07-02T11:38:28;11.93;;;5.78;;
13611;SDS011;6877;51.436;6.774;2023-07-02T11:40:56;14.60;;;5.88;;
13611;SDS011;6877;51.436;6.774;2023-07-02T11:43:22;11.02;;;5.47;;
13611;SDS011;6877;51.436;6.774;2023-07-02T11:45:49;9.60;;;4.85;;
13611;SDS011;6877;51.436;6.774;2023-07-02T11:48:15;20.65;;;6.13;;
13611;SDS011;6877;51.436;6.774;2023-07-02T11:50:42;18.48;;;5.95;;
13611;SDS011;6877;51.436;6.774;2023-07-02T11:53:08;14.55;;;6.00;;
13611;SDS011;6877;51.436;6.774;2023-07-02T11:55:36;13.70;;;5.82;;
13611;SDS011;6877;51.436;6.774;2023-07-02T11:58:02;11.10;;;5.85;;
13611;SDS011;6877;51.436;6.774;2023-07-02T12:00:29;12.95;;;6.43;;
13611;SDS011;6877;51.436;6.774;2023-07-02T12:02:56;16.42;;;6.80;;
13611;SDS011;6877;51.436;6.774;2023-07-02T12:05:22;12.55;;;6.22;;
13611;SDS011;6877;51.436;6.774;2023-07-02T12:07:49;17.33;;;5.78;;
13611;SDS011;6877;51.436;6.774;2023-07-02T12:10:15;13.52;;;6.40;;
13611;SDS011;6877;51.436;6.774;2023-07-02T12:12:42;12.35;;;5.93;;
13611;SDS011;6877;51.436;6.774;2023-07-02T12:15:08;12.68;;;6.97;;
13611;SDS011;6877;51.436;6.774;2023-07-02T12:17:35;11.13;;;5.35;;
13611;SDS011;6877;51.436;6.774;2023-07-02T12:20:02;17.23;;;6.63;;
13611;SDS011;6877;51.436;6.774;2023-07-02T12:22:29;13.95;;;5.70;;
13611;SDS011;6877;51.436;6.774;2023-07-02T12:24:55;13.90;;;6.22;;
13611;SDS011;6877;51.436;6.774;2023-07-02T12:27:23;11.70;;;5.72;;
13611;SDS011;6877;51.436;6.774;2023-07-02T12:29:51;16.83;;;7.47;;
13611;SDS011;6877;51.436;6.774;2023-07-02T12:32:17;19.05;;;6.25;;
13611;SDS011;6877;51.436;6.774;2023-07-02T12:34:44;12.80;;;6.32;;
13611;SDS011;6877;51.436;6.774;2023-07-02T12:37:10;11.18;;;5.75;;
13611;SDS011;6877;51.436;6.774;2023-07-02T12:39:37;12.18;;;6.53;;
13611;SDS011;6877;51.436;6.774;2023-07-02T12:42:03;30.42;;;6.30;;
13611;SDS011;6877;51.436;6.774;2023-07-02T12:44:35;17.55;;;7.38;;
13611;SDS011;6877;51.436;6.774;2023-07-02T12:47:02;12.50;;;6.00;;
13611;SDS011;6877;51.436;6.774;2023-07-02T12:49:28;14.88;;;6.50;;
13611;SDS011;6877;51.436;6.774;2023-07-02T12:51:55;15.32;;;7.68;;
13611;SDS011;6877;51.436;6.774;2023-07-02T12:54:21;17.23;;;6.40;;
13611;SDS011;6877;51.436;6.774;2023-07-02T12:56:47;13.18;;;7.10;;
13611;SDS011;6877;51.436;6.774;2023-07-02T12:59:14;12.90;;;7.03;;
13611;SDS011;6877;51.436;6.774;2023-07-02T13:01:41;17.27;;;7.60;;
13611;SDS011;6877;51.436;6.774;2023-07-02T13:04:07;18.58;;;7.95;;
13611;SDS011;6877;51.436;6.774;2023-07-02T13:06:34;13.90;;;7.20;;
13611;SDS011;6877;51.436;6.774;2023-07-02T13:09:06;13.07;;;7.78;;
13611;SDS011;6877;51.436;6.774;2023-07-02T13:11:35;16.88;;;7.78;;
13611;SDS011;6877;51.436;6.774;2023-07-02T13:14:02;19.15;;;8.23;;
13611;SDS011;6877;51.436;6.774;2023-07-02T13:16:28;16.38;;;7.72;;
13611;SDS011;6877;51.436;6.774;2023-07-02T13:18:56;11.98;;;6.93;;
13611;SDS011;6877;51.436;6.774;2023-07-02T13:21:23;15.50;;;7.75;;
13611;SDS011;6877;51.436;6.774;2023-07-02T13:23:49;19.73;;;8.13;;
13611;SDS011;6877;51.436;6.774;2023-07-02T13:26:16;16.83;;;7.85;;
13611;SDS011;6877;51.436;6.774;2023-07-02T13:28:42;15.00;;;7.15;;
13611;SDS011;6877;51.436;6.774;2023-07-02T13:31:09;16.35;;;7.82;;
13611;SDS011;6877;51.436;6.774;2023-07-02T13:33:37;16.50;;;8.27;;
13611;SDS011;6877;51.436;6.774;2023-07-02T13:36:04;14.93;;;7.10;;
13611;SDS011;6877;51.436;6.774;2023-07-02T13:38:31;19.08;;;7.35;;
13611;SDS011;6877;51.436;6.774;2023-07-02T13:40:58;15.48;;;8.10;;
13611;SDS011;6877;51.436;6.774;2023-07-02T13:43:25;18.13;;;8.57;;
13611;SDS011;6877;51.436;6.774;2023-07-02T13:45:52;15.90;;;7.60;;
13611;SDS011;6877;51.436;6.774;2023-07-02T13:48:18;14.25;;;7.38;;
13611;SDS011;6877;51.436;6.774;2023-07-02T13:50:45;17.13;;;8.68;;
13611;SDS011;6877;51.436;6.774;2023-07-02T13:53:11;15.77;;;8.75;;
13611;SDS011;6877;51.436;6.774;2023-07-02T13:55:38;19.52;;;9.77;;
13611;SDS011;6877;51.436;6.774;2023-07-02T13:58:04;17.27;;;8.40;;
13611;SDS011;6877;51.436;6.774;2023-07-02T14:00:31;20.70;;;8.90;;
13611;SDS011;6877;51.436;6.774;2023-07-02T14:02:57;22.17;;;9.48;;
13611;SDS011;6877;51.436;6.774;2023-07-02T14:05:24;11.93;;;6.80;;
13611;SDS011;6877;51.436;6.774;2023-07-02T14:07:51;19.92;;;8.88;;
13611;SDS011;6877;51.436;6.774;2023-07-02T14:10:17;20.15;;;8.75;;
13611;SDS011;6877;51.436;6.774;2023-07-02T14:12:44;19.25;;;8.45;;
13611;SDS011;6877;51.436;6.774;2023-07-02T14:15:16;23.67;;;10.13;;
13611;SDS011;6877;51.436;6.774;2023-07-02T14:17:42;22.02;;;8.65;;
13611;SDS011;6877;51.436;6.774;2023-07-02T14:20:10;18.60;;;8.38;;
13611;SDS011;6877;51.436;6.774;2023-07-02T14:22:41;18.92;;;8.65;;
13611;SDS011;6877;51.436;6.774;2023-07-02T14:25:13;19.85;;;7.55;;
13611;SDS011;6877;51.436;6.774;2023-07-02T14:27:39;14.55;;;8.48;;
13611;SDS011;6877;51.436;6.774;2023-07-02T14:30:11;16.17;;;8.52;;
13611;SDS011;6877;51.436;6.774;2023-07-02T14:32:38;16.15;;;8.25;;
13611;SDS011;6877;51.436;6.774;2023-07-02T14:35:10;14.40;;;8.05;;
13611;SDS011;6877;51.436;6.774;2023-07-02T14:37:36;19.75;;;8.57;;
13611;SDS011;6877;51.436;6.774;2023-07-02T14:40:03;16.63;;;8.85;;
13611;SDS011;6877;51.436;6.774;2023-07-02T14:42:30;20.85;;;9.23;;
13611;SDS011;6877;51.436;6.774;2023-07-02T14:44:56;18.17;;;8.90;;
13611;SDS011;6877;51.436;6.774;2023-07-02T14:47:22;14.02;;;8.18;;
13611;SDS011;6877;51.436;6.774;2023-07-02T14:49:49;20.38;;;8.68;;
13611;SDS011;6877;51.436;6.774;2023-07-02T14:52:15;18.60;;;8.80;;
13611;SDS011;6877;51.436;6.774;2023-07-02T14:54:49;18.35;;;8.07;;
13611;SDS011;6877;51.436;6.774;2023-07-02T14:57:21;16.85;;;8.35;;
13611;SDS011;6877;51.436;6.774;2023-07-02T14:59:48;18.33;;;9.18;;
13611;SDS011;6877;51.436;6.774;2023-07-02T15:02:16;18.92;;;8.15;;
13611;SDS011;6877;51.436;6.774;2023-07-02T15:04:43;17.40;;;9.52;;
13611;SDS011;6877;51.436;6.774;2023-07-02T15:07:09;19.15;;;8.23;;